Time;durP1;ratioP1;P1;durP2;ratioP2;P2;SDS_P1;SDS_P2;PMS_P1;PMS_P2;Temp;Humidity;BMP_temperature;BMP_pressure;BME280_temperature;BME280_humidity;BME280_pressure;Samples;Min_cycle;Max_cycle;Signal;HPM_P1;HPM_P2
2023/04/19 00:00:07;;;;;;;6.97;4.20;;;9.40;99.90;;;;;;4205388;28;20956;-76
2023/04/19 00:02:09;;;;;;;6.33;4.10;;;9.40;99.90;;;;;;4212057;28;20206;-75
2023/04/19 00:04:11;;;;;;;8.47;4.17;;;9.40;99.90;;;;;;4209071;28;20198;-75
2023/04/19 00:06:14;;;;;;;4.77;3.57;;;9.40;99.90;;;;;;4208659;28;20620;-76
2023/04/19 00:08:16;;;;;;;7.93;4.20;;;9.40;99.90;;;;;;4210278;28;20211;-76
2023/04/19 00:10:21;;;;;;;6.30;4.20;;;9.40;99.90;;;;;;4198898;28;20294;-76
2023/04/19 00:12:23;;;;;;;7.20;3.87;;;9.40;99.90;;;;;;4209569;28;20258;-76
2023/04/19 00:14:25;;;;;;;5.73;3.60;;;9.30;99.90;;;;;;4209561;28;20278;-76
2023/04/19 00:16:26;;;;;;;6.07;4.10;;;9.30;99.90;;;;;;4205821;28;20306;-76
2023/04/19 00:18:28;;;;;;;8.07;4.30;;;9.30;99.90;;;;;;4213213;28;20212;-76
2023/04/19 00:20:30;;;;;;;7.40;4.10;;;9.20;99.90;;;;;;4209117;28;20302;-76
2023/04/19 00:22:33;;;;;;;9.63;4.10;;;9.20;99.90;;;;;;4209329;28;20205;-76
2023/04/19 00:24:35;;;;;;;6.37;4.10;;;9.20;99.90;;;;;;4209734;28;20226;-76
2023/04/19 00:26:37;;;;;;;6.17;3.87;;;9.20;99.90;;;;;;4207221;28;20227;-75
2023/04/19 00:28:39;;;;;;;7.47;3.57;;;9.20;99.90;;;;;;4209150;28;20331;-76
2023/04/19 00:30:41;;;;;;;5.80;3.93;;;9.20;99.90;;;;;;4207535;28;20207;-76
2023/04/19 00:32:43;;;;;;;6.83;4.00;;;9.20;99.90;;;;;;4210449;28;20206;-75
2023/04/19 00:34:45;;;;;;;9.93;4.77;;;9.20;99.90;;;;;;4209718;28;20298;-76
2023/04/19 00:36:47;;;;;;;6.97;4.03;;;9.10;99.90;;;;;;4208374;28;20205;-76
2023/04/19 00:38:50;;;;;;;8.47;4.40;;;9.10;99.90;;;;;;4206348;28;20237;-76
2023/04/19 00:40:52;;;;;;;9.33;4.43;;;9.10;99.90;;;;;;4209520;28;20205;-76
2023/04/19 00:42:54;;;;;;;9.27;4.97;;;9.10;99.90;;;;;;4209713;28;20586;-76
2023/04/19 00:44:55;;;;;;;9.27;4.67;;;9.00;99.90;;;;;;4206165;28;20209;-76
2023/04/19 00:46:57;;;;;;;6.43;4.23;;;9.00;99.90;;;;;;4207428;28;21227;-77
2023/04/19 00:48:59;;;;;;;7.23;4.33;;;8.90;99.90;;;;;;4208173;28;20284;-76
2023/04/19 00:51:02;;;;;;;8.73;5.00;;;8.90;99.90;;;;;;4209227;28;20218;-76
2023/04/19 00:53:04;;;;;;;7.43;4.50;;;8.90;99.90;;;;;;4212353;28;20654;-76
2023/04/19 00:55:08;;;;;;;8.93;4.60;;;8.90;99.90;;;;;;4214966;28;20257;-76
2023/04/19 00:57:10;;;;;;;8.77;4.20;;;8.90;99.90;;;;;;4212069;28;20639;-75
2023/04/19 00:59:14;;;;;;;7.47;4.60;;;8.80;99.90;;;;;;4213545;28;20698;-76
2023/04/19 01:01:17;;;;;;;7.33;4.70;;;8.80;99.90;;;;;;4211307;28;20205;-76
2023/04/19 01:03:20;;;;;;;10.43;4.83;;;8.80;99.90;;;;;;4207958;28;20635;-76
2023/04/19 01:05:22;;;;;;;10.43;5.00;;;8.80;99.90;;;;;;4203882;28;20207;-76
2023/04/19 01:07:24;;;;;;;8.90;5.30;;;8.70;99.90;;;;;;4210956;28;20209;-76
2023/04/19 01:09:26;;;;;;;8.87;4.30;;;8.70;99.90;;;;;;4208617;28;20301;-75
2023/04/19 01:11:29;;;;;;;9.70;4.27;;;8.70;99.90;;;;;;4204375;28;20313;-76
2023/04/19 01:13:31;;;;;;;9.37;4.63;;;8.70;99.90;;;;;;4208208;28;20241;-76
2023/04/19 01:15:34;;;;;;;11.20;5.00;;;8.70;99.90;;;;;;4211390;28;20255;-76
2023/04/19 01:17:36;;;;;;;8.17;4.53;;;8.70;99.90;;;;;;4205379;28;20249;-76
2023/04/19 01:19:38;;;;;;;9.07;4.93;;;8.60;99.90;;;;;;4204635;28;20635;-75
2023/04/19 01:21:41;;;;;;;8.07;4.30;;;8.70;99.90;;;;;;4208491;28;20263;-76
2023/04/19 01:23:45;;;;;;;10.67;5.03;;;8.60;99.90;;;;;;4208813;28;20615;-75
2023/04/19 01:25:46;;;;;;;9.07;4.87;;;8.60;99.90;;;;;;4209856;28;20688;-76
2023/04/19 01:27:48;;;;;;;9.93;4.83;;;8.60;99.90;;;;;;4205920;28;20215;-75
2023/04/19 01:29:50;;;;;;;9.70;4.83;;;8.50;99.90;;;;;;4210858;28;20231;-76
2023/04/19 01:31:53;;;;;;;8.00;4.53;;;8.50;99.90;;;;;;4211034;28;20634;-76
2023/04/19 01:33:55;;;;;;;8.43;4.47;;;8.50;99.90;;;;;;4215050;28;20206;-76
2023/04/19 01:35:57;;;;;;;9.23;4.10;;;8.50;99.90;;;;;;4207928;28;20652;-76
2023/04/19 01:37:58;;;;;;;9.70;4.83;;;8.50;99.90;;;;;;4212079;28;20300;-76
2023/04/19 01:40:02;;;;;;;7.43;4.37;;;8.50;99.90;;;;;;4202973;28;20657;-77
2023/04/19 01:42:04;;;;;;;8.80;4.40;;;8.40;99.90;;;;;;4208185;28;20213;-77
2023/04/19 01:44:06;;;;;;;8.53;4.40;;;8.40;99.90;;;;;;4210439;28;20305;-76
2023/04/19 01:46:08;;;;;;;10.13;4.93;;;8.30;99.90;;;;;;4203936;28;20275;-76
2023/04/19 01:48:10;;;;;;;9.83;5.30;;;8.30;99.90;;;;;;4205369;28;20216;-77
2023/04/19 01:50:12;;;;;;;11.30;5.50;;;8.30;99.90;;;;;;4201561;28;20316;-75
2023/04/19 01:52:14;;;;;;;9.27;5.30;;;8.30;99.90;;;;;;4204902;28;20328;-76
2023/04/19 01:54:19;;;;;;;13.57;5.60;;;8.20;99.90;;;;;;4206147;28;20240;-76
2023/04/19 01:56:22;;;;;;;11.90;5.13;;;8.20;99.90;;;;;;4205156;28;20276;-76
2023/04/19 01:58:24;;;;;;;8.90;5.33;;;8.20;99.90;;;;;;4211876;28;20193;-75
2023/04/19 02:00:26;;;;;;;9.53;5.10;;;8.10;99.90;;;;;;4204267;28;20505;-77
2023/04/19 02:02:28;;;;;;;11.43;6.10;;;8.10;99.90;;;;;;4207815;28;20205;-75
2023/04/19 02:04:30;;;;;;;10.80;5.23;;;8.10;99.90;;;;;;4212396;28;20537;-76
2023/04/19 02:06:31;;;;;;;8.97;5.43;;;8.00;99.90;;;;;;4215095;28;20478;-76
2023/04/19 02:08:33;;;;;;;10.50;5.67;;;8.00;99.90;;;;;;4211584;28;20828;-76
2023/04/19 02:10:35;;;;;;;14.07;6.10;;;8.00;99.90;;;;;;4211897;28;20490;-75
2023/04/19 02:12:39;;;;;;;12.20;6.43;;;7.90;99.90;;;;;;4213886;28;20201;-77
2023/04/19 02:14:40;;;;;;;11.37;6.43;;;7.90;99.90;;;;;;4206319;28;20554;-76
2023/04/19 02:16:43;;;;;;;14.70;6.60;;;7.90;99.90;;;;;;4211048;28;20540;-76
2023/04/19 02:18:47;;;;;;;11.83;6.10;;;7.90;99.90;;;;;;4212292;28;20229;-76
2023/04/19 02:20:49;;;;;;;14.30;5.97;;;7.80;99.90;;;;;;4214131;28;20490;-76
2023/04/19 02:22:52;;;;;;;11.83;5.90;;;7.80;99.90;;;;;;4212485;28;20442;-77
2023/04/19 02:24:54;;;;;;;11.97;6.03;;;7.80;99.90;;;;;;4213157;28;20201;-77
2023/04/19 02:26:56;;;;;;;11.03;5.57;;;7.80;99.90;;;;;;4218544;28;20219;-77
2023/04/19 02:28:59;;;;;;;10.07;5.77;;;7.70;99.90;;;;;;4205948;28;20859;-77
2023/04/19 02:31:05;;;;;;;14.30;6.53;;;7.70;99.90;;;;;;4209488;28;20857;-77
2023/04/19 02:33:07;;;;;;;13.70;6.80;;;7.70;99.90;;;;;;4194406;28;21476;-75
2023/04/19 02:35:09;;;;;;;16.53;7.70;;;7.70;99.90;;;;;;4210794;28;20493;-77
2023/04/19 02:37:11;;;;;;;16.37;6.73;;;7.60;99.90;;;;;;4212948;28;20473;-76
2023/04/19 02:39:13;;;;;;;13.30;6.90;;;7.60;99.90;;;;;;4213483;28;20999;-76
2023/04/19 02:41:15;;;;;;;11.77;6.53;;;7.60;99.90;;;;;;4211805;28;20475;-76
2023/04/19 02:43:17;;;;;;;11.30;6.00;;;7.60;99.90;;;;;;4214022;28;20820;-76
2023/04/19 02:45:20;;;;;;;14.83;6.73;;;7.50;99.90;;;;;;4211118;28;20483;-76
2023/04/19 02:47:22;;;;;;;14.77;6.63;;;7.60;99.90;;;;;;4208749;28;20504;-76
2023/04/19 02:49:24;;;;;;;11.93;6.30;;;7.60;99.90;;;;;;4195480;28;20468;-76
2023/04/19 02:51:27;;;;;;;11.43;6.53;;;7.50;99.90;;;;;;4208538;28;20447;-76
2023/04/19 02:53:28;;;;;;;10.70;6.07;;;7.40;99.90;;;;;;4191635;28;20843;-76
2023/04/19 02:55:30;;;;;;;14.27;6.10;;;7.40;99.90;;;;;;4190452;28;20316;-76
2023/04/19 02:57:32;;;;;;;12.93;6.80;;;7.40;99.90;;;;;;4209465;28;20450;-76
2023/04/19 02:59:34;;;;;;;11.63;5.73;;;7.40;99.90;;;;;;4213137;28;20500;-76
2023/04/19 03:01:37;;;;;;;12.63;6.47;;;7.30;99.90;;;;;;4211479;28;20473;-76
2023/04/19 03:03:39;;;;;;;16.33;6.37;;;7.30;99.90;;;;;;4214964;28;20451;-76
2023/04/19 03:05:41;;;;;;;17.07;6.47;;;7.30;99.90;;;;;;4212832;28;20526;-77
2023/04/19 03:07:43;;;;;;;10.60;5.93;;;7.30;99.90;;;;;;4210482;28;20458;-76
2023/04/19 03:09:45;;;;;;;12.30;6.20;;;7.30;99.90;;;;;;4205433;28;20226;-76
2023/04/19 03:11:47;;;;;;;11.93;6.73;;;7.20;99.90;;;;;;4205647;28;20471;-76
2023/04/19 03:13:49;;;;;;;11.73;6.47;;;7.20;99.90;;;;;;4208983;28;20784;-76
2023/04/19 03:15:51;;;;;;;13.87;6.10;;;7.20;99.90;;;;;;4210577;28;21115;-76
2023/04/19 03:17:54;;;;;;;13.07;6.03;;;7.20;99.90;;;;;;4213991;28;20485;-76
2023/04/19 03:19:56;;;;;;;10.77;5.83;;;7.20;99.90;;;;;;4189373;28;20479;-75
2023/04/19 03:21:58;;;;;;;11.27;5.90;;;7.10;99.90;;;;;;4206223;28;20447;-76
2023/04/19 03:24:00;;;;;;;12.77;5.93;;;7.10;99.90;;;;;;4217507;28;20455;-75
2023/04/19 03:26:02;;;;;;;13.27;6.20;;;7.10;99.90;;;;;;4211450;28;20461;-75
2023/04/19 03:28:05;;;;;;;11.57;5.63;;;7.10;99.90;;;;;;4205255;28;20851;-76
2023/04/19 03:30:08;;;;;;;10.63;5.40;;;7.10;99.90;;;;;;4207541;28;20570;-75
2023/04/19 03:32:09;;;;;;;10.70;5.73;;;7.00;99.90;;;;;;4207291;28;20447;-75
2023/04/19 03:34:13;;;;;;;10.53;5.30;;;7.00;99.90;;;;;;4209251;28;20450;-74
2023/04/19 03:36:15;;;;;;;12.10;5.53;;;7.00;99.90;;;;;;4209752;28;21218;-75
2023/04/19 03:38:17;;;;;;;8.60;5.10;;;7.00;99.90;;;;;;4206578;28;20215;-75
2023/04/19 03:40:19;;;;;;;11.73;5.87;;;7.00;99.90;;;;;;4192312;28;20495;-75
2023/04/19 03:42:21;;;;;;;12.33;6.27;;;7.00;99.90;;;;;;4205921;28;20544;-75
2023/04/19 03:44:23;;;;;;;14.67;5.60;;;7.00;99.90;;;;;;4211954;28;20443;-75
2023/04/19 03:46:25;;;;;;;10.70;5.20;;;6.90;99.90;;;;;;4213253;28;20478;-75
2023/04/19 03:48:27;;;;;;;14.03;5.63;;;6.90;99.90;;;;;;4208177;28;20470;-75
2023/04/19 03:50:30;;;;;;;10.10;4.90;;;6.90;99.90;;;;;;4210164;28;20494;-75
2023/04/19 03:52:32;;;;;;;8.47;4.90;;;6.90;99.90;;;;;;4216565;28;20488;-75
2023/04/19 03:54:34;;;;;;;9.37;4.40;;;6.90;99.90;;;;;;4194999;28;20460;-75
2023/04/19 03:56:36;;;;;;;10.17;4.80;;;6.90;99.90;;;;;;4211732;28;20510;-75
2023/04/19 03:58:41;;;;;;;10.07;4.87;;;6.90;99.90;;;;;;4210112;28;20443;-76
2023/04/19 04:00:43;;;;;;;9.70;5.00;;;6.90;99.90;;;;;;4213788;28;20450;-78
2023/04/19 04:02:45;;;;;;;7.43;4.23;;;6.90;99.90;;;;;;4207574;28;20497;-76
2023/04/19 04:04:47;;;;;;;10.47;4.70;;;6.80;99.90;;;;;;4192541;28;20451;-76
2023/04/19 04:06:50;;;;;;;10.43;4.20;;;6.80;99.90;;;;;;4193963;28;20451;-75
2023/04/19 04:08:52;;;;;;;7.37;4.23;;;6.80;99.90;;;;;;4210175;28;21082;-76
2023/04/19 04:10:54;;;;;;;8.93;3.87;;;6.80;99.90;;;;;;4209195;28;20470;-75
2023/04/19 04:12:56;;;;;;;10.33;4.63;;;6.80;99.90;;;;;;4204185;28;20510;-76
2023/04/19 04:14:58;;;;;;;8.40;4.60;;;6.80;99.90;;;;;;4210461;28;20454;-76
2023/04/19 04:17:00;;;;;;;9.00;4.60;;;6.80;99.90;;;;;;4208823;28;20495;-76
2023/04/19 04:19:02;;;;;;;8.60;4.70;;;6.80;99.90;;;;;;4204940;28;20466;-76
2023/04/19 04:21:04;;;;;;;8.90;4.20;;;6.70;99.90;;;;;;4185684;28;21298;-76
2023/04/19 04:23:07;;;;;;;8.80;4.20;;;6.80;99.90;;;;;;4206353;28;20471;-76
2023/04/19 04:25:11;;;;;;;7.13;3.53;;;6.70;99.90;;;;;;4197336;28;20506;-76
2023/04/19 04:27:13;;;;;;;6.13;3.37;;;6.70;99.90;;;;;;4199625;28;20466;-76
2023/04/19 04:29:16;;;;;;;7.37;4.03;;;6.80;99.90;;;;;;4202169;28;20471;-76
2023/04/19 04:31:21;;;;;;;6.37;3.30;;;6.70;99.90;;;;;;4197511;28;20456;-75
2023/04/19 04:33:24;;;;;;;9.17;3.47;;;6.70;99.90;;;;;;4203072;28;20448;-75
2023/04/19 04:35:28;;;;;;;9.27;3.83;;;6.70;99.90;;;;;;4210182;28;20442;-76
2023/04/19 04:37:33;;;;;;;6.67;3.43;;;6.70;99.90;;;;;;4209776;28;20454;-76
2023/04/19 04:39:38;;;;;;;8.23;3.70;;;6.70;99.90;;;;;;4210491;28;21055;-76
2023/04/19 04:41:41;;;;;;;6.77;3.03;;;6.70;99.90;;;;;;4206272;28;20441;-76
2023/04/19 04:43:48;;;;;;;6.67;3.00;;;6.70;99.90;;;;;;4187491;28;20456;-76
2023/04/19 04:45:50;;;;;;;6.90;3.30;;;6.60;99.90;;;;;;4204880;28;21228;-76
2023/04/19 04:47:52;;;;;;;6.23;3.37;;;6.60;99.90;;;;;;4191226;28;20460;-75
2023/04/19 04:49:54;;;;;;;6.17;3.00;;;6.60;99.90;;;;;;4191980;28;20483;-76
2023/04/19 04:51:56;;;;;;;9.87;5.20;;;6.60;99.90;;;;;;4189136;28;21158;-77
2023/04/19 04:53:58;;;;;;;10.23;4.80;;;6.60;99.90;;;;;;4190490;28;20522;-76
2023/04/19 04:56:01;;;;;;;6.63;4.00;;;6.60;99.90;;;;;;4209254;28;20998;-75
2023/04/19 04:58:04;;;;;;;7.17;3.57;;;6.60;99.90;;;;;;4210051;28;20478;-75
2023/04/19 05:00:08;;;;;;;7.23;3.50;;;6.70;99.90;;;;;;4190718;28;20537;-76
2023/04/19 05:02:10;;;;;;;7.43;3.50;;;6.60;99.90;;;;;;4188908;28;21077;-75
2023/04/19 05:04:12;;;;;;;11.37;4.67;;;6.60;99.90;;;;;;4209486;28;20457;-76
2023/04/19 05:06:14;;;;;;;12.07;5.37;;;6.60;99.90;;;;;;4212288;28;20479;-76
2023/04/19 05:08:16;;;;;;;6.77;3.40;;;6.60;99.90;;;;;;4192660;28;20443;-76
2023/04/19 05:10:18;;;;;;;7.17;2.93;;;6.60;99.90;;;;;;4196089;28;20982;-76
2023/04/19 05:12:21;;;;;;;6.80;3.27;;;6.60;99.90;;;;;;4211193;28;20454;-76
2023/04/19 05:14:23;;;;;;;7.77;3.20;;;6.60;99.90;;;;;;4185656;28;20519;-75
2023/04/19 05:16:26;;;;;;;6.93;3.20;;;6.60;99.90;;;;;;4204646;28;21252;-75
2023/04/19 05:18:28;;;;;;;5.23;2.73;;;6.60;99.90;;;;;;4209243;28;21331;-75
2023/04/19 05:20:30;;;;;;;8.30;3.13;;;6.70;99.90;;;;;;4209442;28;20964;-75
2023/04/19 05:22:32;;;;;;;5.30;2.93;;;6.70;99.90;;;;;;4207247;28;20946;-75
2023/04/19 05:24:34;;;;;;;4.43;2.43;;;6.70;99.90;;;;;;4208463;28;20519;-75
2023/04/19 05:26:36;;;;;;;5.57;2.67;;;6.70;99.90;;;;;;4201549;28;20846;-75
2023/04/19 05:28:40;;;;;;;4.40;2.33;;;6.70;99.90;;;;;;4204677;28;21035;-75
2023/04/19 05:30:42;;;;;;;4.47;2.17;;;6.60;99.90;;;;;;4204413;28;21159;-75
2023/04/19 05:32:44;;;;;;;4.63;2.03;;;6.60;99.90;;;;;;4203714;28;21215;-76
2023/04/19 05:34:46;;;;;;;3.47;1.97;;;6.60;99.90;;;;;;4210458;28;20446;-76
2023/04/19 05:36:48;;;;;;;5.93;2.17;;;6.60;99.90;;;;;;4212374;28;21014;-76
2023/04/19 05:38:50;;;;;;;3.23;2.20;;;6.60;99.90;;;;;;4204489;28;20463;-75
2023/04/19 05:40:52;;;;;;;3.87;2.30;;;6.70;99.90;;;;;;4207880;28;20462;-76
2023/04/19 05:42:54;;;;;;;7.80;2.10;;;6.60;99.90;;;;;;4207659;28;20469;-75
2023/04/19 05:44:57;;;;;;;10.70;3.00;;;6.60;99.90;;;;;;4193167;28;20460;-76
2023/04/19 05:46:59;;;;;;;5.93;2.57;;;6.60;99.90;;;;;;4206966;28;20907;-76
2023/04/19 05:49:02;;;;;;;4.77;2.20;;;6.60;99.90;;;;;;4206392;28;20561;-76
2023/04/19 05:51:04;;;;;;;3.13;2.10;;;6.70;99.90;;;;;;4207375;28;20461;-76
2023/04/19 05:53:09;;;;;;;3.23;2.20;;;6.70;99.90;;;;;;4192765;28;21086;-75
2023/04/19 05:55:11;;;;;;;2.77;1.67;;;6.70;99.90;;;;;;4210947;28;21333;-75
2023/04/19 05:57:13;;;;;;;5.40;2.23;;;6.70;99.90;;;;;;4208293;28;20582;-76
2023/04/19 05:59:14;;;;;;;5.50;2.30;;;6.70;99.90;;;;;;4212772;28;20478;-75
2023/04/19 06:01:18;;;;;;;3.57;1.90;;;6.70;99.90;;;;;;4187502;28;20451;-75
2023/04/19 06:03:22;;;;;;;4.10;1.73;;;6.70;99.90;;;;;;4212712;28;20456;-78
2023/04/19 06:05:24;;;;;;;5.53;2.07;;;6.70;99.90;;;;;;4210235;28;20447;-76
2023/04/19 06:07:26;;;;;;;3.93;2.10;;;6.80;99.90;;;;;;4191586;28;20455;-77
2023/04/19 06:09:28;;;;;;;3.37;1.73;;;6.70;99.90;;;;;;4209927;28;20519;-76
2023/04/19 06:11:33;;;;;;;3.70;1.93;;;6.70;99.90;;;;;;4208354;28;20506;-75
2023/04/19 06:13:35;;;;;;;2.70;1.70;;;6.70;99.90;;;;;;4206947;28;20446;-74
2023/04/19 06:15:38;;;;;;;4.03;2.10;;;6.80;99.90;;;;;;4209061;28;20566;-75
2023/04/19 06:17:42;;;;;;;2.13;1.67;;;6.70;99.90;;;;;;4205153;28;20479;-75
2023/04/19 06:19:44;;;;;;;2.50;1.87;;;6.80;99.90;;;;;;4204565;28;21907;-75
2023/04/19 06:21:46;;;;;;;3.50;1.83;;;6.90;99.90;;;;;;4192147;28;20501;-75
2023/04/19 06:23:48;;;;;;;3.50;2.00;;;6.90;99.90;;;;;;4207220;28;20550;-75
2023/04/19 06:25:50;;;;;;;4.90;2.20;;;6.90;99.90;;;;;;4209824;28;20542;-75
2023/04/19 06:27:52;;;;;;;3.83;2.10;;;6.90;99.90;;;;;;4208739;28;20538;-75
2023/04/19 06:29:54;;;;;;;3.17;1.77;;;7.00;99.90;;;;;;4211053;28;20819;-74
2023/04/19 06:31:56;;;;;;;3.70;2.07;;;6.90;99.90;;;;;;4211240;28;20537;-75
2023/04/19 06:33:59;;;;;;;4.47;2.10;;;6.90;99.90;;;;;;4208804;28;20495;-75
2023/04/19 06:36:01;;;;;;;6.90;2.30;;;6.90;99.90;;;;;;4207729;28;20438;-75
2023/04/19 06:38:03;;;;;;;3.83;1.90;;;6.90;99.90;;;;;;4206516;28;20510;-75
2023/04/19 06:40:07;;;;;;;5.90;2.27;;;6.90;99.90;;;;;;4209012;28;20516;-75
2023/04/19 06:42:09;;;;;;;4.80;2.27;;;6.90;99.90;;;;;;4209248;28;20488;-75
2023/04/19 06:44:12;;;;;;;4.00;2.10;;;6.90;99.90;;;;;;4195189;28;20448;-76
2023/04/19 06:46:14;;;;;;;3.97;1.97;;;6.90;99.90;;;;;;4209835;28;20983;-74
2023/04/19 06:48:16;;;;;;;3.77;2.13;;;6.80;99.90;;;;;;4193279;28;20866;-75
2023/04/19 06:50:20;;;;;;;4.50;2.17;;;6.80;99.90;;;;;;4208121;28;20559;-75
2023/04/19 06:52:22;;;;;;;4.30;2.43;;;6.80;99.90;;;;;;4210008;28;20478;-75
2023/04/19 06:54:24;;;;;;;5.37;2.17;;;6.80;99.90;;;;;;4207145;28;20494;-76
2023/04/19 06:56:40;;;;;;;3.67;2.20;;;6.80;99.90;;;;;;4208651;28;20456;-75
2023/04/19 06:58:42;;;;;;;7.37;2.60;;;6.80;99.90;;;;;;4208674;28;20843;-74
2023/04/19 07:00:44;;;;;;;4.63;2.30;;;6.80;99.90;;;;;;4192577;28;20474;-75
2023/04/19 07:02:46;;;;;;;3.40;2.20;;;6.80;99.90;;;;;;4210336;28;20458;-75
2023/04/19 07:04:48;;;;;;;3.70;1.90;;;6.80;99.90;;;;;;4213378;28;20467;-75
2023/04/19 07:06:51;;;;;;;5.20;2.40;;;6.80;99.90;;;;;;4191421;28;21019;-75
2023/04/19 07:08:53;;;;;;;4.43;2.30;;;6.80;99.90;;;;;;4205094;28;20487;-74
2023/04/19 07:10:55;;;;;;;4.23;2.20;;;6.90;99.90;;;;;;4205648;28;20960;-75
2023/04/19 07:12:57;;;;;;;5.20;2.20;;;6.90;99.90;;;;;;4208630;28;20479;-74
2023/04/19 07:14:59;;;;;;;4.97;2.10;;;6.90;99.90;;;;;;4211939;28;20840;-75
2023/04/19 07:17:01;;;;;;;5.60;2.50;;;6.90;99.90;;;;;;4212997;28;20518;-74
2023/04/19 07:19:03;;;;;;;4.00;2.07;;;6.90;99.90;;;;;;4194449;28;20525;-73
2023/04/19 07:21:05;;;;;;;4.93;2.40;;;6.90;99.90;;;;;;4192974;28;20844;-74
2023/04/19 07:23:09;;;;;;;6.03;2.30;;;6.90;99.90;;;;;;4207603;28;20448;-74
2023/04/19 07:25:12;;;;;;;4.57;2.10;;;6.90;99.90;;;;;;4207045;28;20534;-75
2023/04/19 07:27:15;;;;;;;4.97;2.20;;;6.90;99.90;;;;;;4207477;28;20443;-75
2023/04/19 07:29:17;;;;;;;3.70;2.13;;;7.00;99.90;;;;;;4210560;28;20519;-76
2023/04/19 07:31:20;;;;;;;4.80;1.90;;;7.00;99.90;;;;;;4204995;28;20481;-75
2023/04/19 07:33:23;;;;;;;3.43;2.23;;;7.00;99.90;;;;;;4209226;28;20446;-75
2023/04/19 07:35:25;;;;;;;5.90;2.30;;;7.00;99.90;;;;;;4196103;28;20473;-75
2023/04/19 07:37:27;;;;;;;3.80;1.97;;;7.00;99.90;;;;;;4208814;28;21525;-75
2023/04/19 07:39:31;;;;;;;4.83;2.20;;;7.00;99.90;;;;;;4211343;28;20476;-75
2023/04/19 07:41:33;;;;;;;3.23;2.00;;;7.00;99.90;;;;;;4207043;28;20554;-76
2023/04/19 07:43:35;;;;;;;4.70;1.93;;;7.10;99.90;;;;;;4204149;28;21232;-76
2023/04/19 07:45:37;;;;;;;4.37;2.20;;;7.10;99.90;;;;;;4206545;28;20450;-76
2023/04/19 07:47:39;;;;;;;5.57;2.13;;;7.10;99.90;;;;;;4191055;28;20459;-76
2023/04/19 07:49:43;;;;;;;5.70;2.03;;;7.10;99.90;;;;;;4207966;28;20509;-76
2023/04/19 07:51:45;;;;;;;3.83;1.87;;;7.20;99.90;;;;;;4187361;28;20491;-76
2023/04/19 07:53:48;;;;;;;5.53;2.10;;;7.20;99.90;;;;;;4189455;28;20517;-76
2023/04/19 07:55:51;;;;;;;4.17;2.00;;;7.20;99.90;;;;;;4204711;28;20458;-77
2023/04/19 07:57:53;;;;;;;3.77;1.90;;;7.20;99.90;;;;;;4187996;28;21002;-76
2023/04/19 07:59:58;;;;;;;7.10;3.20;;;7.20;99.90;;;;;;4184488;28;20533;-75
2023/04/19 08:01:59;;;;;;;6.97;2.77;;;7.30;99.90;;;;;;4206712;28;20453;-75
2023/04/19 08:04:01;;;;;;;5.60;2.30;;;7.30;99.90;;;;;;4205284;28;20465;-75
2023/04/19 08:06:06;;;;;;;4.33;2.10;;;7.30;99.90;;;;;;4190282;28;20452;-74
2023/04/19 08:08:08;;;;;;;4.07;1.70;;;7.30;99.90;;;;;;4211006;28;20450;-74
2023/04/19 08:10:10;;;;;;;6.73;2.30;;;7.30;99.90;;;;;;4210258;28;20474;-75
2023/04/19 08:12:14;;;;;;;3.97;1.80;;;7.40;99.90;;;;;;4211331;28;20447;-74
2023/04/19 08:14:16;;;;;;;6.17;2.23;;;7.30;99.90;;;;;;4208059;28;20497;-75
2023/04/19 08:16:18;;;;;;;7.07;2.00;;;7.30;99.90;;;;;;4190400;28;20214;-75
2023/04/19 08:18:20;;;;;;;3.33;1.80;;;7.40;99.90;;;;;;4207213;28;20581;-75
2023/04/19 08:20:22;;;;;;;5.00;2.30;;;7.40;99.90;;;;;;4212861;28;20896;-75
2023/04/19 08:22:24;;;;;;;3.27;1.87;;;7.40;99.90;;;;;;4193535;28;20550;-74
2023/04/19 08:24:26;;;;;;;4.17;2.10;;;7.40;99.90;;;;;;4207317;28;20443;-74
2023/04/19 08:26:28;;;;;;;3.77;2.17;;;7.50;99.90;;;;;;4209335;28;20954;-74
2023/04/19 08:28:31;;;;;;;5.23;2.20;;;7.50;99.90;;;;;;4211288;28;20534;-73
2023/04/19 08:30:33;;;;;;;2.50;1.87;;;7.50;99.90;;;;;;4194813;28;20492;-75
2023/04/19 08:32:35;;;;;;;4.13;2.10;;;7.50;99.90;;;;;;4209250;28;20462;-76
2023/04/19 08:34:38;;;;;;;4.93;1.90;;;7.60;99.90;;;;;;4206719;28;21011;-75
2023/04/19 08:36:40;;;;;;;4.27;1.90;;;7.70;99.90;;;;;;4212577;28;20500;-75
2023/04/19 08:38:42;;;;;;;4.83;1.90;;;7.70;99.90;;;;;;4209756;28;20537;-75
2023/04/19 08:40:46;;;;;;;4.40;2.10;;;7.70;99.90;;;;;;4208790;28;20447;-74
2023/04/19 08:42:48;;;;;;;3.50;2.20;;;7.70;99.90;;;;;;4205756;28;20466;-75
2023/04/19 08:44:55;;;;;;;4.97;2.50;;;7.80;99.90;;;;;;4208552;28;20999;-75
2023/04/19 08:46:58;;;;;;;3.83;1.97;;;7.80;99.90;;;;;;4208971;28;20455;-75
2023/04/19 08:49:01;;;;;;;3.43;1.90;;;7.80;99.90;;;;;;4207087;28;20276;-76
2023/04/19 08:51:04;;;;;;;2.67;1.90;;;7.90;99.90;;;;;;4209103;28;20451;-76
2023/04/19 08:53:07;;;;;;;4.77;1.97;;;7.90;99.90;;;;;;4205160;28;21365;-76
2023/04/19 08:55:10;;;;;;;5.33;2.30;;;8.00;99.90;;;;;;4204377;28;20213;-76
2023/04/19 08:57:12;;;;;;;4.47;1.87;;;8.00;99.90;;;;;;4186295;28;20217;-75
2023/04/19 08:59:14;;;;;;;5.07;2.10;;;8.10;99.90;;;;;;4205148;28;20466;-75
2023/04/19 09:01:18;;;;;;;3.73;2.30;;;8.20;99.90;;;;;;4206459;28;20582;-76
2023/04/19 09:03:20;;;;;;;4.80;2.17;;;8.20;99.90;;;;;;4208701;28;20220;-76
2023/04/19 09:05:22;;;;;;;4.27;2.17;;;8.20;99.90;;;;;;4208519;28;20260;-76
2023/04/19 09:07:24;;;;;;;5.17;2.63;;;8.30;99.90;;;;;;4208146;28;20224;-76
2023/04/19 09:09:28;;;;;;;5.63;2.27;;;8.30;99.90;;;;;;4208797;28;20225;-78
2023/04/19 09:11:38;;;;;;;5.40;2.03;;;8.40;99.90;;;;;;4193328;28;20457;-76
2023/04/19 09:13:42;;;;;;;6.53;2.10;;;8.50;99.90;;;;;;4214256;28;20690;-76
2023/04/19 09:15:44;;;;;;;7.20;2.30;;;8.60;99.90;;;;;;4207759;28;20443;-77
2023/04/19 09:18:04;;;;;;;3.67;2.03;;;8.60;99.90;;;;;;4192231;28;20225;-77
2023/04/19 09:20:07;;;;;;;4.50;2.00;;;8.70;99.90;;;;;;4192056;28;20223;-76
2023/04/19 09:22:13;;;;;;;3.37;1.83;;;8.70;99.90;;;;;;4210015;28;20206;-76
2023/04/19 09:24:15;;;;;;;3.73;2.30;;;8.70;99.90;;;;;;4210700;28;20205;-76
2023/04/19 09:26:17;;;;;;;3.23;1.67;;;8.80;99.90;;;;;;4204460;28;20207;-76
2023/04/19 09:28:20;;;;;;;3.80;2.23;;;8.90;99.90;;;;;;4209627;28;20232;-75
2023/04/19 09:30:25;;;;;;;7.97;2.40;;;8.90;99.90;;;;;;4206419;28;20221;-76
2023/04/19 09:32:28;;;;;;;4.33;2.03;;;9.00;99.90;;;;;;4211039;28;20198;-76
2023/04/19 09:34:31;;;;;;;3.90;1.80;;;9.10;99.90;;;;;;4214206;28;20206;-76
2023/04/19 09:36:34;;;;;;;5.67;2.40;;;9.10;99.90;;;;;;4212112;28;20280;-76
2023/04/19 09:38:47;;;;;;;4.60;2.10;;;9.20;99.90;;;;;;4212703;28;20823;-76
2023/04/19 09:40:49;;;;;;;5.10;2.07;;;9.20;99.90;;;;;;4207217;28;20285;-76
2023/04/19 09:42:52;;;;;;;3.17;2.00;;;9.30;99.90;;;;;;4211179;28;20632;-77
2023/04/19 09:44:57;;;;;;;5.20;2.13;;;9.40;99.90;;;;;;4199025;28;20254;-77
2023/04/19 09:46:59;;;;;;;8.47;1.90;;;9.50;99.90;;;;;;4214633;28;20207;-76
2023/04/19 09:49:18;;;;;;;5.10;2.07;;;9.60;99.90;;;;;;4209523;28;20234;-76
2023/04/19 09:51:22;;;;;;;5.17;1.77;;;9.80;99.90;;;;;;4211072;28;20251;-76
2023/04/19 09:53:25;;;;;;;5.17;1.50;;;9.90;99.90;;;;;;4212660;28;20222;-76
2023/04/19 09:55:27;;;;;;;5.20;1.83;;;10.00;99.90;;;;;;4212764;28;20206;-75
2023/04/19 09:57:29;;;;;;;5.63;1.90;;;10.10;99.90;;;;;;4218184;28;20846;-76
2023/04/19 09:59:31;;;;;;;3.20;1.73;;;10.20;99.90;;;;;;4215828;28;20258;-76
2023/04/19 10:01:35;;;;;;;4.17;1.73;;;10.20;99.90;;;;;;4211489;28;20207;-76
2023/04/19 10:03:37;;;;;;;6.20;1.93;;;10.30;99.90;;;;;;4213184;28;20239;-76
2023/04/19 10:05:41;;;;;;;3.37;1.93;;;10.30;99.90;;;;;;4215056;28;20212;-76
2023/04/19 10:07:44;;;;;;;5.80;2.23;;;10.40;99.90;;;;;;4192035;28;20217;-76
2023/04/19 10:09:49;;;;;;;4.70;2.13;;;10.50;99.90;;;;;;4210571;28;20229;-76
2023/04/19 10:11:52;;;;;;;5.63;1.83;;;10.50;99.90;;;;;;4190237;28;20271;-76
2023/04/19 10:13:59;;;;;;;5.10;2.00;;;10.60;99.90;;;;;;4191388;28;20208;-76
2023/04/19 10:16:02;;;;;;;7.47;2.17;;;10.60;99.90;;;;;;4209463;28;20262;-76
2023/04/19 10:18:05;;;;;;;8.23;2.13;;;10.70;99.90;;;;;;4189613;28;20625;-76
2023/04/19 10:20:13;;;;;;;4.20;1.90;;;10.80;99.90;;;;;;4209083;28;20228;-76
2023/04/19 10:22:15;;;;;;;4.43;2.20;;;10.90;99.90;;;;;;4194693;28;20217;-76
2023/04/19 10:24:20;;;;;;;5.87;2.30;;;11.00;99.90;;;;;;4206484;28;20296;-75
2023/04/19 10:26:22;;;;;;;3.00;2.10;;;11.10;99.90;;;;;;4213340;28;20275;-76
2023/04/19 10:28:24;;;;;;;2.77;2.10;;;11.20;99.90;;;;;;4209511;28;20254;-76
2023/04/19 10:30:27;;;;;;;4.83;2.00;;;11.20;99.90;;;;;;4203952;28;20284;-75
2023/04/19 10:32:30;;;;;;;3.53;2.00;;;11.30;99.90;;;;;;4214401;28;20243;-75
2023/04/19 10:34:40;;;;;;;4.70;2.20;;;11.40;99.90;;;;;;4217047;28;20214;-76
2023/04/19 10:36:43;;;;;;;5.30;1.87;;;11.50;99.90;;;;;;4202977;28;20598;-76
2023/04/19 10:38:48;;;;;;;3.07;1.80;;;11.60;99.90;;;;;;4183648;28;20887;-76
2023/04/19 10:41:00;;;;;;;4.73;2.03;;;11.60;99.90;;;;;;4209532;28;20201;-76
2023/04/19 10:43:17;;;;;;;5.37;2.10;;;11.80;99.90;;;;;;4198090;28;20209;-76